createdAt,value
2019-02-05T00:04:27.125Z,63.81
2019-02-05T00:07:15.911Z,63.48
2019-02-05T00:10:27.346Z,63.71
2019-02-05T00:13:16.133Z,64.09
2019-02-05T00:16:05.010Z,64.11
2019-02-05T00:18:53.795Z,64.01
2019-02-05T00:21:42.679Z,64.48
2019-02-05T00:24:31.470Z,64.73
2019-02-05T00:27:22.000Z,64.10
2019-02-05T00:30:31.695Z,64.17
2019-02-05T00:33:27.260Z,64.46
2019-02-05T00:36:16.047Z,65.07
2019-02-05T00:39:25.779Z,65.13
2019-02-05T00:42:14.845Z,64.76
2019-02-05T00:48:19.659Z,65.28
2019-02-05T00:51:08.538Z,65.22
2019-02-05T00:53:57.331Z,65.11
2019-02-05T00:56:46.139Z,64.99
2019-02-05T00:59:34.936Z,65.12
2019-02-05T01:02:16.332Z,64.54
2019-02-05T01:05:26.058Z,64.32
2019-02-05T01:08:14.874Z,64.50
2019-02-05T01:11:03.697Z,64.37
2019-02-05T01:13:52.518Z,64.32
2019-02-05T01:16:41.576Z,65.17
2019-02-05T01:19:30.395Z,65.30
2019-02-05T01:22:19.176Z,65.86
2019-02-05T01:25:28.898Z,66.12
2019-02-05T01:28:17.688Z,66.58
2019-02-05T01:31:06.564Z,66.25
2019-02-05T01:33:55.498Z,66.25
2019-02-05T01:36:44.321Z,66.31
2019-02-05T01:39:33.103Z,66.22
2019-02-05T01:42:21.922Z,66.29
2019-02-05T01:45:31.921Z,66.18
2019-02-05T01:48:20.731Z,66.49
2019-02-05T01:51:09.540Z,66.39
2019-02-05T01:53:58.363Z,68.48
2019-02-05T01:56:48.861Z,68.20
2019-02-05T01:59:37.676Z,67.88
2019-02-05T02:02:19.228Z,67.65
2019-02-05T02:05:08.236Z,67.85
2019-02-05T02:07:57.086Z,68.24
2019-02-05T02:10:46.220Z,68.23
2019-02-05T02:13:35.287Z,68.25
2019-02-05T02:16:26.293Z,68.14
2019-02-05T02:19:15.092Z,68.08
2019-02-05T02:22:24.664Z,68.21
2019-02-05T02:25:13.936Z,68.22
2019-02-05T02:28:02.733Z,68.28
2019-02-05T02:30:51.522Z,68.00
2019-02-05T02:33:40.401Z,68.15
2019-02-05T02:36:29.195Z,67.47
2019-02-05T02:39:18.003Z,67.30
2019-02-05T02:42:06.804Z,67.22
2019-02-05T02:44:55.595Z,68.23
2019-02-05T02:47:44.410Z,67.57
2019-02-05T02:50:33.194Z,67.71
2019-02-05T02:53:22.021Z,67.60
2019-02-05T02:56:10.819Z,68.94
2019-02-05T02:58:59.630Z,68.80
2019-02-05T03:01:48.424Z,67.74
2019-02-05T03:04:31.505Z,68.96
2019-02-05T03:07:20.299Z,68.24
2019-02-05T03:10:29.321Z,68.15
2019-02-05T03:13:18.099Z,67.12
2019-02-05T03:16:07.075Z,67.11
2019-02-05T03:18:55.867Z,67.47
2019-02-05T03:21:44.669Z,67.06
2019-02-05T03:24:33.474Z,66.77
2019-02-05T03:27:22.274Z,66.65
2019-02-05T03:30:33.705Z,66.83
2019-02-05T03:33:22.534Z,67.23
2019-02-05T03:36:11.305Z,67.54
2019-02-05T03:39:00.201Z,67.74
2019-02-05T03:41:50.616Z,67.00
2019-02-05T03:44:39.439Z,67.18
2019-02-05T03:47:28.242Z,68.47
2019-02-05T03:50:17.045Z,69.27
2019-02-05T03:53:27.981Z,70.03
2019-02-05T03:56:55.461Z,69.69
2019-02-05T04:00:22.954Z,69.89
2019-02-05T04:03:09.167Z,70.09
2019-02-05T04:06:18.899Z,70.21
2019-02-05T04:09:28.616Z,70.19
2019-02-05T04:12:38.573Z,70.33
2019-02-05T04:16:06.074Z,70.46
2019-02-05T04:19:33.560Z,70.73
2019-02-05T04:22:43.302Z,70.72
2019-02-05T04:25:54.776Z,70.65
2019-02-05T04:29:22.261Z,71.61
2019-02-05T04:32:32.033Z,72.54
2019-02-05T04:35:41.776Z,72.42
2019-02-05T04:38:51.518Z,71.78
2019-02-05T04:42:02.928Z,71.16
2019-02-05T04:45:12.654Z,71.15
2019-02-05T04:48:43.542Z,71.22
2019-02-05T04:52:09.345Z,71.01
2019-02-05T04:55:19.050Z,70.72
2019-02-05T04:58:28.832Z,71.14
2019-02-05T05:01:41.517Z,71.45
2019-02-05T05:04:42.305Z,70.84
2019-02-05T05:07:52.071Z,70.86
2019-02-05T05:10:40.870Z,71.42
2019-02-05T05:13:29.678Z,71.35
2019-02-05T05:16:18.470Z,71.09
2019-02-05T05:19:07.279Z,70.97
2019-02-05T05:21:57.867Z,70.55
2019-02-05T05:24:46.845Z,70.95
2019-02-05T05:27:35.649Z,71.18
2019-02-05T05:30:24.509Z,71.18
2019-02-05T05:33:13.315Z,71.54
2019-02-05T05:36:02.132Z,71.62
2019-02-05T05:38:50.933Z,71.96
2019-02-05T05:41:41.471Z,71.17
2019-02-05T05:44:30.259Z,70.97
2019-02-05T05:47:19.070Z,71.24
2019-02-05T05:50:28.793Z,71.21
2019-02-05T05:53:17.607Z,72.10
2019-02-05T05:56:06.474Z,72.06
2019-02-05T05:58:57.023Z,72.12
2019-02-05T06:01:45.847Z,73.21
2019-02-05T06:04:25.615Z,73.04
2019-02-05T06:07:14.422Z,73.49
2019-02-05T06:13:31.883Z,72.69
2019-02-05T06:16:20.674Z,72.45
2019-02-05T06:19:09.476Z,72.09
2019-02-05T06:21:58.273Z,72.45
2019-02-05T06:24:47.083Z,72.05
2019-02-05T06:27:35.934Z,71.99
2019-02-05T06:30:24.743Z,72.33
2019-02-05T06:33:13.539Z,72.11
2019-02-05T06:36:02.353Z,72.96
2019-02-05T06:38:51.234Z,72.20
2019-02-05T06:41:41.816Z,72.32
2019-02-05T06:44:30.637Z,72.13
2019-02-05T06:47:19.541Z,71.71
2019-02-05T06:50:29.336Z,71.98
2019-02-05T06:53:18.379Z,72.17
2019-02-05T06:56:07.242Z,71.98
2019-02-05T06:58:56.057Z,71.80
2019-02-05T07:01:44.840Z,71.78
2019-02-05T07:04:26.805Z,71.51
2019-02-05T07:07:15.606Z,71.69
2019-02-05T07:10:25.312Z,71.90
2019-02-05T07:13:14.128Z,71.90
2019-02-05T07:16:02.933Z,71.98
2019-02-05T07:18:51.738Z,71.76
2019-02-05T07:21:40.577Z,71.73
2019-02-05T07:24:29.385Z,71.08
2019-02-05T07:27:18.532Z,70.56
2019-02-05T07:30:28.251Z,70.61
2019-02-05T07:33:17.044Z,69.99
2019-02-05T07:36:05.925Z,69.93
2019-02-05T07:38:54.710Z,70.27
2019-02-05T07:41:43.537Z,70.30
2019-02-05T07:44:32.328Z,70.33
2019-02-05T07:47:23.420Z,70.28
2019-02-05T07:50:30.994Z,69.65
2019-02-05T07:53:19.796Z,69.67
2019-02-05T07:56:08.656Z,69.08
2019-02-05T07:58:57.461Z,69.09
2019-02-05T08:01:46.250Z,69.13
2019-02-05T08:04:27.899Z,69.10
2019-02-05T08:07:16.689Z,69.16
2019-02-05T08:10:26.428Z,69.31
2019-02-05T08:13:15.311Z,70.76
2019-02-05T08:16:04.182Z,70.54
2019-02-05T08:18:53.079Z,70.54
2019-02-05T08:21:22.526Z,70.12
2019-02-05T08:24:11.341Z,69.47
2019-02-05T08:27:00.217Z,69.28
2019-02-05T08:29:49.029Z,69.30
2019-02-05T08:32:37.925Z,68.79
2019-02-05T08:35:26.789Z,68.23
2019-02-05T08:38:15.669Z,67.85
2019-02-05T08:41:06.176Z,67.18
2019-02-05T08:43:55.073Z,66.36
2019-02-05T08:46:43.878Z,66.12
2019-02-05T08:49:32.702Z,66.11
2019-02-05T08:52:21.516Z,66.54
2019-02-05T08:55:31.225Z,66.13
2019-02-05T08:58:30.337Z,66.20
2019-02-05T09:01:03.828Z,66.58
2019-02-05T09:03:52.632Z,66.61
2019-02-05T09:06:41.431Z,66.37
2019-02-05T09:09:30.239Z,66.94
2019-02-05T09:12:19.108Z,66.91
2019-02-05T09:15:29.786Z,67.35
2019-02-05T09:18:19.340Z,66.96
2019-02-05T09:21:08.150Z,66.91
2019-02-05T09:23:58.656Z,66.36
2019-02-05T09:26:47.479Z,66.41
2019-02-05T09:29:36.297Z,66.67
2019-02-05T09:32:25.097Z,66.81
2019-02-05T09:35:13.899Z,67.29
2019-02-05T09:38:02.725Z,68.45
2019-02-05T09:40:51.556Z,68.23
2019-02-05T09:43:40.444Z,68.81
2019-02-05T09:46:29.395Z,68.42
2019-02-05T09:49:18.195Z,68.50
2019-02-05T09:52:07.012Z,69.26
2019-02-05T09:54:55.801Z,68.74
2019-02-05T09:57:44.644Z,67.42
2019-02-05T10:00:54.369Z,66.81
2019-02-05T10:03:34.070Z,66.42
2019-02-05T10:06:22.885Z,66.53
2019-02-05T10:09:11.686Z,66.93
2019-02-05T10:12:00.503Z,66.92
2019-02-05T10:14:51.004Z,67.71
2019-02-05T10:17:39.812Z,66.92
2019-02-05T10:20:28.609Z,66.64
2019-02-05T10:23:17.490Z,66.49
2019-02-05T10:26:06.279Z,66.29
2019-02-05T10:28:55.089Z,65.84
2019-02-05T10:31:43.880Z,65.94
2019-02-05T10:34:34.514Z,66.01
2019-02-05T10:37:23.289Z,66.05
2019-02-05T10:40:33.011Z,65.99
2019-02-05T10:43:21.818Z,66.71
2019-02-05T10:46:10.610Z,65.71
2019-02-05T10:48:59.431Z,65.07
2019-02-05T10:51:48.258Z,65.40
2019-02-05T10:54:37.060Z,64.78
2019-02-05T10:57:25.844Z,64.21
2019-02-05T11:00:35.652Z,64.56
2019-02-05T11:03:18.620Z,64.21
2019-02-05T11:06:07.500Z,64.12
2019-02-05T11:08:56.450Z,63.69
2019-02-05T11:11:45.298Z,63.93
2019-02-05T11:14:34.158Z,63.87
2019-02-05T11:17:23.142Z,63.64
2019-02-05T11:20:32.848Z,64.58
2019-02-05T11:23:21.693Z,64.73
2019-02-05T11:26:10.501Z,63.75
2019-02-05T11:28:59.484Z,63.53
2019-02-05T11:31:48.316Z,63.74
2019-02-05T11:34:37.131Z,64.50
2019-02-05T11:37:25.959Z,64.81
2019-02-05T11:40:35.355Z,64.97
2019-02-05T11:43:24.144Z,66.52
2019-02-05T11:46:13.031Z,65.16
2019-02-05T11:49:01.825Z,65.25
2019-02-05T11:51:50.641Z,64.11
2019-02-05T11:54:39.468Z,63.66
2019-02-05T11:57:28.264Z,63.74
2019-02-05T12:00:57.039Z,63.29
2019-02-05T12:03:38.944Z,63.54
2019-02-05T12:06:27.765Z,61.90
2019-02-05T12:09:37.462Z,62.53
2019-02-05T12:12:06.996Z,62.60
2019-02-05T12:14:55.824Z,62.20
2019-02-05T12:17:44.618Z,62.56
2019-02-05T12:20:33.449Z,62.12
2019-02-05T12:23:24.097Z,62.88
2019-02-05T12:26:12.917Z,62.34
2019-02-05T12:29:01.719Z,63.44
2019-02-05T12:31:50.511Z,64.08
2019-02-05T12:34:39.330Z,64.40
2019-02-05T12:37:28.121Z,64.11
2019-02-05T12:40:36.262Z,65.21
2019-02-05T12:43:25.058Z,64.62
2019-02-05T12:46:13.920Z,64.41
2019-02-05T12:49:02.804Z,64.20
2019-02-05T12:51:51.592Z,63.67
2019-02-05T12:54:40.399Z,64.27
2019-02-05T12:57:29.316Z,64.41
2019-02-05T13:00:40.177Z,65.52
2019-02-05T13:03:22.002Z,65.74
2019-02-05T13:06:10.864Z,65.80
2019-02-05T13:08:59.675Z,65.36
2019-02-05T13:11:50.255Z,65.50
2019-02-05T13:14:39.069Z,65.56
2019-02-05T13:17:27.950Z,65.96
2019-02-05T13:20:37.659Z,66.05
2019-02-05T13:23:26.482Z,66.22
2019-02-05T13:26:15.338Z,66.01
2019-02-05T13:29:04.322Z,67.10
2019-02-05T13:31:53.121Z,68.10
2019-02-05T13:34:43.665Z,67.22
2019-02-05T13:37:32.471Z,67.77
2019-02-05T13:40:40.598Z,68.28
2019-02-05T13:43:29.390Z,69.13
2019-02-05T13:46:18.208Z,69.63
2019-02-05T13:49:07.063Z,68.86
2019-02-05T13:51:57.599Z,68.85
2019-02-05T13:54:46.406Z,68.72
2019-02-05T13:57:35.205Z,68.07
2019-02-05T14:01:02.699Z,67.61
2019-02-05T14:03:43.999Z,67.78
2019-02-05T14:06:32.789Z,68.25
2019-02-05T14:09:21.613Z,68.40
2019-02-05T14:12:10.406Z,68.48
2019-02-05T14:15:00.936Z,68.55
2019-02-05T14:17:49.729Z,68.22
2019-02-05T14:20:38.545Z,68.11
2019-02-05T14:23:27.366Z,68.36
2019-02-05T14:26:16.246Z,68.36
2019-02-05T14:29:05.100Z,69.18
2019-02-05T14:31:53.980Z,69.64
2019-02-05T14:34:42.771Z,69.93
2019-02-05T14:37:31.586Z,69.47
2019-02-05T14:40:43.124Z,68.99
2019-02-05T14:43:31.951Z,69.28
2019-02-05T14:46:20.764Z,68.68
2019-02-05T14:49:09.583Z,68.75
2019-02-05T14:51:58.378Z,68.14
2019-02-05T14:54:47.183Z,69.43
2019-02-05T14:57:35.993Z,69.10
2019-02-05T15:00:45.710Z,68.73
2019-02-05T15:03:27.421Z,68.40
2019-02-05T15:06:16.235Z,68.35
2019-02-05T15:12:34.206Z,69.69
2019-02-05T15:15:43.897Z,69.68
2019-02-05T15:18:32.714Z,69.77
2019-02-05T15:21:21.917Z,70.10
2019-02-05T15:24:10.712Z,70.00
2019-02-05T15:26:59.493Z,69.98
2019-02-05T15:29:48.294Z,70.37
2019-02-05T15:36:05.653Z,70.38
2019-02-05T15:38:54.438Z,71.13
2019-02-05T15:41:43.307Z,71.12
2019-02-05T15:44:33.834Z,71.17
2019-02-05T15:47:22.649Z,72.80
2019-02-05T15:50:32.361Z,72.69
2019-02-05T15:53:21.173Z,72.63
2019-02-05T15:56:29.226Z,72.95
2019-02-05T15:59:10.923Z,72.94
2019-02-05T16:02:06.359Z,73.38
2019-02-05T16:04:54.086Z,74.17
2019-02-05T16:07:42.871Z,73.21
2019-02-05T16:10:31.682Z,72.27
2019-02-05T16:13:22.193Z,72.42
2019-02-05T16:16:11.083Z,73.74
2019-02-05T16:19:01.587Z,73.84
2019-02-05T16:21:50.398Z,74.11
2019-02-05T16:24:39.194Z,74.00
2019-02-05T16:27:28.332Z,74.06
2019-02-05T16:30:38.035Z,73.80
2019-02-05T16:33:26.843Z,74.04
2019-02-05T16:36:15.642Z,73.31
2019-02-05T16:39:25.376Z,73.27
2019-02-05T16:42:14.162Z,73.81
2019-02-05T16:45:02.976Z,74.10
2019-02-05T16:47:53.484Z,74.58
2019-02-05T16:51:03.368Z,74.04
2019-02-05T16:53:52.232Z,74.17
2019-02-05T16:56:41.026Z,74.67
2019-02-05T16:59:22.343Z,73.92
2019-02-05T17:02:11.124Z,73.21
2019-02-05T17:05:01.658Z,73.18
2019-02-05T17:07:50.535Z,73.19
2019-02-05T17:10:39.342Z,73.09
2019-02-05T17:13:28.133Z,72.56
2019-02-05T17:16:16.942Z,72.20
2019-02-05T17:19:05.747Z,72.18
2019-02-05T17:21:54.565Z,71.86
2019-02-05T17:24:43.375Z,71.67
2019-02-05T17:27:32.438Z,71.77
2019-02-05T17:30:43.891Z,71.70
2019-02-05T17:33:32.709Z,71.84
2019-02-05T17:36:21.495Z,72.57
2019-02-05T17:39:31.199Z,73.38
2019-02-05T17:42:20.075Z,75.00
2019-02-05T17:45:29.779Z,74.88
2019-02-05T17:48:18.735Z,75.82
2019-02-05T17:51:07.555Z,76.26
2019-02-05T17:53:56.357Z,75.62
2019-02-05T17:56:46.882Z,74.66
2019-02-05T17:59:28.523Z,74.92
2019-02-05T18:02:17.339Z,75.09
2019-02-05T18:05:27.047Z,74.86
2019-02-05T18:08:17.581Z,75.14
2019-02-05T18:11:06.948Z,75.25
2019-02-05T18:13:55.751Z,74.96
2019-02-05T18:16:45.458Z,74.84
2019-02-05T18:19:35.068Z,76.24
2019-02-05T18:22:23.867Z,76.22
2019-02-05T18:25:33.614Z,76.37
2019-02-05T18:28:22.394Z,77.31
2019-02-05T18:31:11.401Z,78.09
2019-02-05T18:34:00.168Z,77.35
2019-02-05T18:36:48.966Z,76.69
2019-02-05T18:39:39.866Z,77.17
2019-02-05T18:42:28.281Z,78.20
2019-02-05T18:45:38.011Z,77.94
2019-02-05T18:48:28.522Z,78.82
2019-02-05T18:51:17.326Z,79.16
2019-02-05T18:54:06.189Z,78.49
2019-02-05T18:56:45.911Z,78.09
2019-02-05T18:59:34.709Z,78.14
2019-02-05T19:02:23.510Z,78.38
2019-02-05T19:05:13.088Z,77.45
2019-02-05T19:08:03.954Z,76.33
2019-02-05T19:10:52.748Z,75.24
2019-02-05T19:13:41.778Z,74.78
2019-02-05T19:16:30.614Z,74.23
2019-02-05T19:19:19.421Z,73.86
2019-02-05T19:22:08.205Z,74.41
2019-02-05T19:28:07.789Z,74.32
2019-02-05T19:31:05.403Z,75.04
2019-02-05T19:33:54.285Z,75.26
2019-02-05T19:36:43.072Z,75.63
2019-02-05T19:39:31.884Z,75.97
2019-02-05T19:42:20.693Z,76.12
2019-02-05T19:51:24.336Z,77.36
2019-02-05T19:54:13.145Z,77.69
2019-02-05T19:57:01.934Z,77.79
2019-02-05T19:59:43.566Z,77.73
2019-02-05T20:02:32.360Z,77.16
2019-02-05T20:05:21.352Z,76.28
2019-02-05T20:08:11.778Z,75.67
2019-02-05T20:11:00.624Z,75.50
2019-02-05T20:13:49.428Z,75.12
2019-02-05T20:16:38.238Z,74.96
2019-02-05T20:19:27.034Z,75.81
2019-02-05T20:22:15.843Z,75.89
2019-02-05T20:28:20.049Z,76.76
2019-02-05T20:31:08.912Z,76.40
2019-02-05T20:33:57.742Z,75.91
2019-02-05T20:36:46.560Z,75.95
2019-02-05T20:39:35.681Z,76.22
2019-02-05T20:42:24.566Z,77.13
2019-02-05T20:48:42.251Z,77.13
2019-02-05T20:51:31.056Z,76.81
2019-02-05T20:54:19.862Z,76.32
2019-02-05T20:57:01.423Z,76.30
2019-02-05T20:59:50.240Z,76.21
2019-02-05T21:02:39.037Z,75.50
2019-02-05T21:05:27.968Z,75.23
2019-02-05T21:08:18.476Z,75.38
2019-02-05T21:11:07.337Z,75.52
2019-02-05T21:13:56.146Z,75.29
2019-02-05T21:16:44.953Z,76.18
2019-02-05T21:19:33.755Z,76.54
2019-02-05T21:22:22.546Z,76.31
2019-02-05T21:25:32.393Z,78.84
2019-02-05T21:28:21.145Z,77.53
2019-02-05T21:31:09.953Z,76.21
2019-02-05T21:33:58.745Z,75.35
2019-02-05T21:36:47.562Z,75.49
2019-02-05T21:39:36.366Z,75.52
2019-02-05T21:42:25.162Z,75.37
2019-02-05T21:45:36.580Z,75.61
2019-02-05T21:48:25.391Z,75.56
2019-02-05T21:51:14.195Z,75.03
2019-02-05T21:54:02.990Z,74.49
2019-02-05T21:56:51.795Z,74.49
2019-02-05T21:59:40.628Z,75.44
2019-02-05T22:02:29.521Z,75.63
2019-02-05T22:05:18.322Z,75.32
2019-02-05T22:08:08.773Z,75.33
2019-02-05T22:10:57.664Z,75.24
2019-02-05T22:13:46.489Z,75.47
2019-02-05T22:16:35.359Z,75.32
2019-02-05T22:19:25.881Z,75.19
2019-02-05T22:22:14.689Z,75.26
2019-02-05T22:28:31.961Z,75.41
2019-02-05T22:31:20.912Z,75.07
2019-02-05T22:34:09.746Z,75.61
2019-02-05T22:36:58.529Z,75.86
2019-02-05T22:39:47.341Z,75.79
2019-02-05T22:42:29.042Z,76.57
2019-02-05T22:45:41.112Z,76.32
2019-02-05T22:48:29.583Z,77.07
2019-02-05T22:51:18.400Z,77.11
2019-02-05T22:53:59.885Z,76.57
2019-02-05T22:56:48.694Z,76.31
2019-02-05T22:59:39.227Z,76.32
2019-02-05T23:05:56.760Z,76.43
2019-02-05T23:08:45.563Z,76.51
2019-02-05T23:12:13.231Z,76.46
2019-02-05T23:15:23.328Z,76.08
2019-02-05T23:18:12.141Z,76.02
2019-02-05T23:21:00.950Z,76.22
2019-02-05T23:23:50.073Z,76.02
2019-02-05T23:26:40.586Z,75.62
2019-02-05T23:29:29.405Z,75.32
2019-02-05T23:32:19.941Z,75.53
2019-02-05T23:35:08.908Z,76.12
2019-02-05T23:37:57.721Z,76.94
2019-02-05T23:40:46.532Z,76.95
2019-02-05T23:43:35.323Z,77.06
2019-02-05T23:46:24.141Z,77.32
2019-02-05T23:49:12.935Z,77.64
2019-02-05T23:52:01.750Z,77.92
2019-02-05T23:54:43.359Z,78.51
2019-02-05T23:57:32.236Z,78.68
